createdAt,value
2022-11-29T00:01:04.793Z,16.95
2022-11-29T00:03:34.900Z,16.25
2022-11-29T00:06:10.061Z,16.90
2022-11-29T00:08:37.129Z,15.77
2022-11-29T00:11:12.245Z,16.88
2022-11-29T00:13:39.448Z,16.50
2022-11-29T00:16:08.716Z,16.13
2022-11-29T00:18:36.667Z,16.42
2022-11-29T00:21:08.030Z,15.90
2022-11-29T00:23:35.802Z,16.33
2022-11-29T00:26:07.187Z,16.65
2022-11-29T00:28:35.581Z,17.30
2022-11-29T00:31:20.395Z,16.95
2022-11-29T00:33:47.573Z,15.90
2022-11-29T00:36:14.913Z,17.45
2022-11-29T00:38:42.156Z,16.05
2022-11-29T00:41:09.871Z,16.48
2022-11-29T00:43:36.626Z,17.25
2022-11-29T00:46:04.315Z,16.83
2022-11-29T00:48:32.390Z,16.50
2022-11-29T00:50:58.975Z,16.27
2022-11-29T00:53:25.758Z,17.02
2022-11-29T00:55:52.826Z,16.00
2022-11-29T00:58:20.813Z,17.17
2022-11-29T01:00:47.764Z,16.83
2022-11-29T01:03:15.383Z,17.10
2022-11-29T01:05:42.966Z,17.80
2022-11-29T01:08:13.608Z,17.83
2022-11-29T01:10:41.184Z,17.57
2022-11-29T01:13:08.634Z,16.88
2022-11-29T01:15:37.367Z,16.33
2022-11-29T01:18:04.272Z,17.58
2022-11-29T01:20:31.290Z,17.50
2022-11-29T01:22:58.344Z,17.97
2022-11-29T01:25:26.175Z,17.60
2022-11-29T01:27:54.380Z,17.40
2022-11-29T01:30:21.431Z,17.45
2022-11-29T01:32:48.139Z,16.80
2022-11-29T01:35:14.816Z,18.47
2022-11-29T01:37:41.396Z,17.85
2022-11-29T01:40:08.558Z,17.13
2022-11-29T01:42:35.153Z,17.20
2022-11-29T01:45:04.243Z,17.50
2022-11-29T01:47:32.030Z,17.20
2022-11-29T01:50:00.042Z,18.50
2022-11-29T01:52:30.941Z,16.63
2022-11-29T01:55:01.515Z,17.17
2022-11-29T01:57:29.292Z,17.65
2022-11-29T02:00:00.516Z,18.30
2022-11-29T02:02:35.438Z,17.42
2022-11-29T02:05:03.214Z,16.27
2022-11-29T02:07:29.860Z,18.08
2022-11-29T02:09:56.477Z,17.27
2022-11-29T02:12:44.042Z,17.57
2022-11-29T02:15:24.701Z,17.38
2022-11-29T02:18:05.781Z,17.15
2022-11-29T02:20:53.993Z,18.10
2022-11-29T02:23:23.402Z,18.10
2022-11-29T02:26:17.195Z,17.40
2022-11-29T02:29:22.214Z,17.30
2022-11-29T02:32:16.413Z,19.10
2022-11-29T02:34:52.059Z,17.27
2022-11-29T02:37:33.831Z,17.63
2022-11-29T02:40:23.491Z,18.80
2022-11-29T02:43:07.055Z,17.25
2022-11-29T02:45:53.762Z,18.02
2022-11-29T02:48:30.387Z,16.95
2022-11-29T02:51:11.336Z,17.40
2022-11-29T02:53:58.673Z,18.60
2022-11-29T02:56:44.094Z,17.70
2022-11-29T02:59:30.629Z,18.02
2022-11-29T03:02:11.774Z,18.45
2022-11-29T03:04:45.494Z,19.90
2022-11-29T03:07:23.093Z,18.67
2022-11-29T03:10:02.239Z,18.33
2022-11-29T03:12:41.628Z,18.23
2022-11-29T03:15:41.694Z,18.52
2022-11-29T03:18:33.824Z,18.67
2022-11-29T03:21:00.376Z,18.80
2022-11-29T03:23:29.860Z,18.42
2022-11-29T03:26:04.694Z,19.30
2022-11-29T03:28:35.953Z,18.85
2022-11-29T03:31:14.560Z,17.58
2022-11-29T03:34:05.160Z,19.00
2022-11-29T03:36:43.858Z,18.92
2022-11-29T03:39:19.195Z,18.45
2022-11-29T03:41:55.363Z,18.55
2022-11-29T03:44:31.195Z,18.85
2022-11-29T03:47:03.562Z,18.60
2022-11-29T03:49:53.024Z,18.52
2022-11-29T03:52:43.885Z,19.73
2022-11-29T03:55:32.995Z,19.38
2022-11-29T03:58:12.760Z,18.33
2022-11-29T04:01:24.233Z,18.63
2022-11-29T04:04:12.521Z,18.73
2022-11-29T04:07:01.061Z,18.35
2022-11-29T04:10:28.699Z,18.75
2022-11-29T04:13:15.989Z,18.13
2022-11-29T04:16:08.602Z,19.13
2022-11-29T04:19:05.949Z,16.60
2022-11-29T04:21:50.977Z,19.85
2022-11-29T04:25:00.177Z,18.85
2022-11-29T04:27:37.635Z,18.70
2022-11-29T04:30:09.431Z,18.43
2022-11-29T04:33:03.956Z,18.85
2022-11-29T04:35:36.463Z,19.40
2022-11-29T04:38:40.336Z,19.35
2022-11-29T04:41:28.074Z,19.25
2022-11-29T04:44:05.568Z,19.27
2022-11-29T04:46:50.881Z,19.35
2022-11-29T04:49:36.188Z,18.90
2022-11-29T04:52:20.723Z,18.88
2022-11-29T04:55:11.658Z,19.02
2022-11-29T04:57:47.577Z,19.07
2022-11-29T05:00:19.205Z,18.45
2022-11-29T05:03:10.207Z,18.90
2022-11-29T05:05:59.397Z,18.35
2022-11-29T05:08:50.663Z,20.35
2022-11-29T05:11:29.297Z,18.40
2022-11-29T05:14:07.572Z,18.98
2022-11-29T05:16:47.905Z,18.77
2022-11-29T05:19:44.022Z,17.88
2022-11-29T05:22:28.211Z,19.77
2022-11-29T05:25:18.873Z,18.27
2022-11-29T05:27:48.482Z,19.02
2022-11-29T05:30:23.526Z,17.90
2022-11-29T05:33:08.793Z,18.40
2022-11-29T05:35:58.791Z,17.90
2022-11-29T05:38:49.365Z,19.27
2022-11-29T05:41:21.827Z,17.50
2022-11-29T05:44:10.010Z,18.63
2022-11-29T05:46:42.800Z,17.98
2022-11-29T05:49:31.112Z,17.80
2022-11-29T05:51:57.716Z,17.90
2022-11-29T05:54:59.066Z,18.92
2022-11-29T05:57:56.107Z,18.60
2022-11-29T06:00:23.189Z,17.40
2022-11-29T06:03:18.680Z,17.58
2022-11-29T06:05:56.643Z,19.43
2022-11-29T06:08:54.988Z,18.50
2022-11-29T06:11:27.800Z,17.05
2022-11-29T06:14:07.747Z,18.55
2022-11-29T06:16:52.769Z,18.65
2022-11-29T06:19:58.425Z,18.47
2022-11-29T06:23:07.169Z,19.10
2022-11-29T06:25:47.303Z,18.13
2022-11-29T06:28:38.543Z,18.63
2022-11-29T06:31:25.343Z,19.35
2022-11-29T06:34:14.923Z,18.17
2022-11-29T06:36:52.037Z,19.10
2022-11-29T06:39:19.307Z,18.88
2022-11-29T06:41:47.048Z,19.02
2022-11-29T06:44:14.025Z,18.40
2022-11-29T06:47:06.683Z,18.43
2022-11-29T06:49:54.383Z,18.73
2022-11-29T06:52:26.921Z,18.08
2022-11-29T06:55:08.452Z,19.05
2022-11-29T06:58:03.198Z,18.17
2022-11-29T07:00:57.430Z,17.53
2022-11-29T07:04:07.445Z,18.33
2022-11-29T07:06:35.029Z,18.38
2022-11-29T07:09:24.543Z,19.45
2022-11-29T07:11:51.239Z,17.77
2022-11-29T07:14:18.152Z,18.40
2022-11-29T07:16:57.636Z,18.20
2022-11-29T07:19:39.878Z,19.00
2022-11-29T07:22:45.272Z,18.50
2022-11-29T07:25:17.682Z,18.10
2022-11-29T07:28:04.548Z,18.47
2022-11-29T07:30:33.869Z,19.00
2022-11-29T07:33:08.839Z,19.60
2022-11-29T07:36:00.898Z,19.08
2022-11-29T07:38:49.309Z,18.42
2022-11-29T07:41:32.093Z,17.50
2022-11-29T07:44:13.003Z,18.45
2022-11-29T07:46:39.624Z,18.15
2022-11-29T07:49:09.277Z,18.83
2022-11-29T07:51:35.980Z,18.90
2022-11-29T07:54:02.678Z,18.50
2022-11-29T07:56:29.873Z,19.52
2022-11-29T07:58:56.701Z,17.70
2022-11-29T08:01:23.418Z,17.75
2022-11-29T08:03:50.098Z,18.60
2022-11-29T08:06:22.885Z,17.90
2022-11-29T08:08:49.367Z,19.63
2022-11-29T08:11:15.956Z,17.25
2022-11-29T08:13:42.863Z,17.48
2022-11-29T08:16:09.425Z,18.15
2022-11-29T08:18:36.585Z,18.07
2022-11-29T08:21:07.492Z,17.52
2022-11-29T08:23:34.212Z,18.60
2022-11-29T08:26:01.956Z,17.67
2022-11-29T08:28:28.716Z,18.55
2022-11-29T08:31:03.266Z,16.63
2022-11-29T08:33:30.036Z,17.65
2022-11-29T08:35:56.756Z,18.42
2022-11-29T08:38:23.343Z,17.45
2022-11-29T08:40:49.898Z,18.42
2022-11-29T08:43:16.509Z,17.80
2022-11-29T08:45:43.302Z,17.48
2022-11-29T08:48:09.897Z,19.10
2022-11-29T08:50:36.483Z,18.00
2022-11-29T08:53:34.897Z,16.98
2022-11-29T08:56:01.588Z,18.30
2022-11-29T08:58:28.466Z,18.27
2022-11-29T09:00:55.909Z,18.45
2022-11-29T09:03:41.342Z,18.48
2022-11-29T09:06:12.606Z,17.73
2022-11-29T09:08:39.833Z,17.40
2022-11-29T09:11:14.468Z,17.50
2022-11-29T09:13:43.074Z,18.00
2022-11-29T09:16:12.455Z,17.17
2022-11-29T09:18:40.684Z,17.55
2022-11-29T09:21:09.778Z,17.40
2022-11-29T09:23:37.325Z,18.13
2022-11-29T09:26:05.349Z,18.38
2022-11-29T09:28:33.477Z,16.98
2022-11-29T09:31:12.515Z,17.67
2022-11-29T09:33:39.863Z,18.33
2022-11-29T09:36:09.081Z,17.65
2022-11-29T09:38:36.157Z,18.27
2022-11-29T09:41:06.868Z,17.40
2022-11-29T09:44:13.901Z,15.13
2022-11-29T09:46:46.555Z,16.43
2022-11-29T09:49:48.329Z,17.58
2022-11-29T09:52:36.121Z,17.23
2022-11-29T09:55:28.668Z,17.17
2022-11-29T09:57:58.264Z,16.23
2022-11-29T10:00:26.066Z,17.10
2022-11-29T10:03:11.048Z,16.58
2022-11-29T10:05:47.453Z,17.15
2022-11-29T10:08:21.512Z,16.92
2022-11-29T10:10:50.790Z,17.30
2022-11-29T10:13:20.349Z,17.00
2022-11-29T10:15:50.101Z,16.27
2022-11-29T10:18:29.646Z,17.13
2022-11-29T10:20:58.559Z,17.45
2022-11-29T10:23:36.711Z,17.77
2022-11-29T10:26:07.913Z,17.37
2022-11-29T10:28:36.678Z,17.60
2022-11-29T10:31:14.620Z,17.77
2022-11-29T10:33:41.797Z,17.02
2022-11-29T10:36:39.587Z,17.73
2022-11-29T10:39:14.789Z,17.87
2022-11-29T10:41:41.733Z,16.67
2022-11-29T10:44:14.122Z,17.40
2022-11-29T10:46:41.189Z,18.25
2022-11-29T10:49:14.034Z,17.05
2022-11-29T10:51:40.658Z,17.67
2022-11-29T10:54:32.552Z,18.85
2022-11-29T10:57:00.833Z,17.70
2022-11-29T10:59:32.918Z,17.40
2022-11-29T11:02:01.651Z,18.80
2022-11-29T11:04:28.533Z,17.33
2022-11-29T11:07:00.946Z,18.25
2022-11-29T11:09:30.047Z,17.63
2022-11-29T11:12:02.977Z,18.73
2022-11-29T11:14:37.596Z,17.50
2022-11-29T11:17:26.276Z,16.93
2022-11-29T11:20:04.489Z,19.70
2022-11-29T11:22:33.011Z,18.65
2022-11-29T11:25:25.067Z,18.95
2022-11-29T11:27:51.968Z,18.20
2022-11-29T11:30:23.540Z,16.80
2022-11-29T11:33:27.256Z,18.95
2022-11-29T11:36:14.819Z,19.42
2022-11-29T11:38:49.524Z,18.77
2022-11-29T11:41:51.006Z,18.15
2022-11-29T11:44:45.764Z,18.73
2022-11-29T11:47:15.360Z,19.38
2022-11-29T11:49:50.127Z,19.65
2022-11-29T11:52:30.520Z,19.15
2022-11-29T11:55:03.960Z,19.48
2022-11-29T11:57:31.516Z,20.17
2022-11-29T12:00:06.345Z,18.33
2022-11-29T12:02:41.039Z,20.00
2022-11-29T12:05:18.362Z,20.02
2022-11-29T12:08:09.386Z,19.38
2022-11-29T12:10:39.802Z,18.97
2022-11-29T12:13:14.968Z,18.67
2022-11-29T12:15:44.957Z,20.60
2022-11-29T12:18:26.690Z,19.58
2022-11-29T12:21:25.349Z,19.77
2022-11-29T12:23:58.741Z,19.63
2022-11-29T12:26:55.950Z,19.92
2022-11-29T12:29:18.577Z,19.90
2022-11-29T12:32:03.079Z,19.17
2022-11-29T12:34:51.336Z,18.83
2022-11-29T12:37:37.315Z,20.10
2022-11-29T12:40:30.575Z,19.38
2022-11-29T12:43:21.855Z,19.58
2022-11-29T12:45:51.865Z,19.23
2022-11-29T12:48:33.568Z,18.50
2022-11-29T12:51:48.433Z,17.67
2022-11-29T12:54:47.895Z,18.90
2022-11-29T12:57:50.421Z,17.95
2022-11-29T13:00:19.753Z,20.05
2022-11-29T13:02:55.297Z,19.67
2022-11-29T13:05:50.569Z,19.10
2022-11-29T13:08:40.192Z,18.50
2022-11-29T13:11:24.953Z,19.17
2022-11-29T13:14:13.710Z,18.60
2022-11-29T13:16:45.292Z,20.05
2022-11-29T13:19:44.468Z,18.47
2022-11-29T13:22:27.795Z,20.67
2022-11-29T13:25:25.896Z,20.23
2022-11-29T13:28:01.795Z,18.73
2022-11-29T13:30:28.373Z,19.75
2022-11-29T13:33:24.742Z,20.10
2022-11-29T13:36:06.297Z,19.60
2022-11-29T13:38:45.849Z,19.38
2022-11-29T13:41:30.323Z,19.48
2022-11-29T13:44:09.062Z,19.95
2022-11-29T13:47:02.405Z,19.10
2022-11-29T13:49:55.002Z,19.50
2022-11-29T13:52:45.406Z,19.90
2022-11-29T13:55:11.926Z,19.17
2022-11-29T13:58:14.937Z,19.17
2022-11-29T14:00:44.240Z,20.10
2022-11-29T14:03:28.927Z,20.55
2022-11-29T14:06:01.577Z,19.83
2022-11-29T14:08:37.954Z,19.83
2022-11-29T14:11:16.715Z,20.02
2022-11-29T14:14:08.440Z,20.60
2022-11-29T14:16:39.701Z,20.88
2022-11-29T14:19:20.151Z,19.92
2022-11-29T14:21:58.938Z,20.75
2022-11-29T14:24:37.933Z,20.00
2022-11-29T14:27:10.211Z,20.67
2022-11-29T14:29:48.858Z,21.08
2022-11-29T14:32:39.295Z,20.42
2022-11-29T14:35:12.240Z,19.83
2022-11-29T14:37:59.424Z,20.23
2022-11-29T14:40:40.716Z,16.63
2022-11-29T14:43:26.532Z,19.15
2022-11-29T14:46:08.545Z,20.48
2022-11-29T14:48:36.704Z,21.75
2022-11-29T14:51:15.592Z,20.52
2022-11-29T14:53:44.585Z,19.93
2022-11-29T14:56:29.565Z,21.48
2022-11-29T14:59:33.744Z,21.27
2022-11-29T15:02:35.095Z,21.23
2022-11-29T15:05:19.456Z,20.92
2022-11-29T15:07:52.779Z,21.20
2022-11-29T15:10:24.127Z,20.83
2022-11-29T15:12:51.946Z,21.65
2022-11-29T15:15:38.749Z,20.75
2022-11-29T15:18:10.982Z,21.55
2022-11-29T15:21:08.741Z,22.13
2022-11-29T15:23:43.127Z,21.50
2022-11-29T15:26:21.883Z,21.33
2022-11-29T15:28:48.514Z,21.17
2022-11-29T15:31:18.804Z,19.67
2022-11-29T15:33:48.603Z,21.77
2022-11-29T15:36:24.200Z,21.92
2022-11-29T15:38:52.945Z,21.25
2022-11-29T15:41:37.828Z,21.55
2022-11-29T15:44:06.645Z,20.77
2022-11-29T15:46:34.874Z,20.63
2022-11-29T15:49:18.582Z,21.88
2022-11-29T15:51:50.213Z,27.10
2022-11-29T15:54:34.685Z,24.63
2022-11-29T15:57:06.303Z,22.33
2022-11-29T15:59:46.438Z,23.77
2022-11-29T16:02:19.523Z,23.00
2022-11-29T16:04:47.868Z,21.83
2022-11-29T16:07:15.328Z,22.42
2022-11-29T16:09:46.125Z,21.20
2022-11-29T16:12:15.962Z,21.20
2022-11-29T16:14:55.798Z,22.33
2022-11-29T16:17:27.002Z,22.67
2022-11-29T16:20:13.369Z,21.63
2022-11-29T16:22:40.077Z,21.67
2022-11-29T16:25:15.847Z,20.50
2022-11-29T16:27:43.093Z,21.83
2022-11-29T16:30:23.746Z,22.08
2022-11-29T16:32:56.752Z,21.98
2022-11-29T16:35:29.254Z,19.48
2022-11-29T16:37:56.154Z,20.93
2022-11-29T16:40:27.222Z,19.02
2022-11-29T16:43:02.965Z,20.52
2022-11-29T16:45:42.762Z,21.85
2022-11-29T16:48:21.802Z,21.98
2022-11-29T16:51:23.887Z,22.10
2022-11-29T16:53:51.791Z,21.15
2022-11-29T16:56:24.386Z,22.48
2022-11-29T16:59:20.767Z,21.77
2022-11-29T17:01:48.073Z,21.35
2022-11-29T17:04:23.500Z,18.07
2022-11-29T17:06:52.904Z,21.23
2022-11-29T17:09:22.967Z,22.85
2022-11-29T17:11:49.510Z,24.13
2022-11-29T17:14:16.156Z,29.05
2022-11-29T17:16:42.868Z,22.57
2022-11-29T17:19:13.388Z,23.58
2022-11-29T17:21:40.328Z,23.83
2022-11-29T17:24:11.124Z,22.60
2022-11-29T17:26:37.739Z,24.90
2022-11-29T17:29:04.481Z,21.47
2022-11-29T17:31:31.636Z,22.65
2022-11-29T17:34:01.300Z,20.67
2022-11-29T17:36:28.157Z,21.15
2022-11-29T17:38:54.887Z,21.88
2022-11-29T17:41:24.160Z,21.53
2022-11-29T17:43:52.469Z,21.73
2022-11-29T17:46:24.494Z,22.00
2022-11-29T17:48:52.166Z,20.70
2022-11-29T17:51:50.109Z,20.67
2022-11-29T17:54:08.605Z,21.50
2022-11-29T17:56:35.240Z,20.67
2022-11-29T17:59:03.833Z,22.52
2022-11-29T18:01:33.500Z,21.98
2022-11-29T18:04:01.994Z,23.60
2022-11-29T18:06:36.010Z,20.93
2022-11-29T18:09:07.594Z,22.95
2022-11-29T18:11:45.273Z,22.50
2022-11-29T18:14:23.242Z,23.15
2022-11-29T18:16:50.352Z,22.98
2022-11-29T18:19:19.402Z,23.20
2022-11-29T18:21:46.207Z,22.67
2022-11-29T18:24:12.777Z,23.73
2022-11-29T18:26:39.855Z,23.45
2022-11-29T18:29:07.301Z,23.95
2022-11-29T18:31:36.467Z,21.97
2022-11-29T18:34:07.087Z,22.50
2022-11-29T18:36:36.597Z,23.33
2022-11-29T18:39:11.232Z,22.67
2022-11-29T18:41:38.065Z,21.83
2022-11-29T18:44:10.590Z,22.13
2022-11-29T18:46:38.188Z,22.83
2022-11-29T18:49:06.755Z,21.85
2022-11-29T18:51:35.165Z,21.30
2022-11-29T18:54:02.033Z,22.83
2022-11-29T18:56:30.558Z,23.30
2022-11-29T18:59:05.501Z,22.17
2022-11-29T19:01:34.629Z,22.85
2022-11-29T19:04:01.926Z,22.48
2022-11-29T19:06:38.929Z,25.17
2022-11-29T19:09:07.859Z,23.83
2022-11-29T19:11:34.864Z,23.15
2022-11-29T19:14:05.373Z,25.00
2022-11-29T19:16:33.785Z,24.27
2022-11-29T19:19:01.531Z,26.30
2022-11-29T19:21:31.724Z,28.40
2022-11-29T19:24:00.634Z,25.40
2022-11-29T19:26:29.310Z,24.48
2022-11-29T19:28:56.905Z,26.55
2022-11-29T19:31:25.395Z,23.10
2022-11-29T19:33:52.841Z,23.10
2022-11-29T19:36:24.749Z,24.48
2022-11-29T19:38:54.150Z,22.98
2022-11-29T19:41:22.328Z,23.67
2022-11-29T19:43:49.372Z,22.75
2022-11-29T19:46:27.732Z,23.53
2022-11-29T19:48:56.391Z,23.65
2022-11-29T19:51:24.339Z,25.35
2022-11-29T19:53:55.647Z,22.70
2022-11-29T19:56:23.444Z,24.83
2022-11-29T19:58:50.581Z,23.70
2022-11-29T20:01:19.918Z,22.77
2022-11-29T20:03:46.671Z,23.02
2022-11-29T20:06:14.145Z,24.13
2022-11-29T20:08:41.702Z,24.20
2022-11-29T20:11:09.983Z,23.73
2022-11-29T20:13:37.926Z,26.73
2022-11-29T20:16:09.950Z,25.88
2022-11-29T20:18:39.239Z,24.58
2022-11-29T20:21:09.060Z,25.55
2022-11-29T20:23:35.649Z,26.57
2022-11-29T20:26:02.349Z,26.48
2022-11-29T20:28:29.992Z,30.23
2022-11-29T20:30:56.951Z,28.83
2022-11-29T20:33:25.356Z,28.83
2022-11-29T20:36:06.556Z,26.07
2022-11-29T20:38:41.063Z,24.90
2022-11-29T20:41:31.007Z,26.80
2022-11-29T20:44:01.597Z,27.27
2022-11-29T20:46:28.727Z,27.63
2022-11-29T20:48:57.191Z,28.13
2022-11-29T20:51:40.154Z,25.83
2022-11-29T20:54:07.005Z,24.90
2022-11-29T20:56:33.539Z,25.38
2022-11-29T20:59:00.082Z,25.30
2022-11-29T21:01:26.907Z,25.87
2022-11-29T21:03:53.720Z,25.52
2022-11-29T21:06:20.408Z,24.92
2022-11-29T21:08:47.752Z,24.35
2022-11-29T21:11:14.737Z,25.45
2022-11-29T21:13:41.609Z,24.97
2022-11-29T21:16:11.016Z,25.20
2022-11-29T21:18:38.399Z,27.23
2022-11-29T21:21:34.999Z,26.92
2022-11-29T21:24:04.647Z,26.00
2022-11-29T21:26:42.303Z,25.53
2022-11-29T21:29:20.785Z,26.95
2022-11-29T21:31:53.405Z,26.27
2022-11-29T21:34:22.907Z,25.73
2022-11-29T21:36:57.229Z,27.52
2022-11-29T21:39:29.676Z,25.37
2022-11-29T21:41:56.279Z,28.30
2022-11-29T21:44:22.849Z,27.48
2022-11-29T21:46:50.079Z,26.27
2022-11-29T21:49:16.728Z,27.50
2022-11-29T21:51:43.382Z,28.03
2022-11-29T21:54:10.087Z,26.58
2022-11-29T21:56:37.309Z,27.20
2022-11-29T21:59:03.999Z,28.58
2022-11-29T22:01:30.652Z,27.23
2022-11-29T22:03:57.255Z,26.30
2022-11-29T22:06:28.205Z,26.55
2022-11-29T22:08:54.886Z,27.95
2022-11-29T22:11:32.130Z,26.83
2022-11-29T22:14:16.114Z,28.10
2022-11-29T22:16:48.036Z,29.53
2022-11-29T22:19:20.130Z,25.95
2022-11-29T22:21:49.990Z,27.52
2022-11-29T22:24:18.726Z,25.48
2022-11-29T22:26:45.874Z,28.13
2022-11-29T22:29:14.108Z,26.13
2022-11-29T22:31:42.157Z,25.50
2022-11-29T22:34:08.941Z,25.35
2022-11-29T22:36:36.062Z,25.40
2022-11-29T22:39:03.915Z,26.27
2022-11-29T22:41:32.020Z,26.97
2022-11-29T22:43:58.627Z,26.42
2022-11-29T22:46:27.065Z,27.50
2022-11-29T22:48:55.566Z,25.42
2022-11-29T22:51:28.697Z,25.98
2022-11-29T22:53:57.117Z,27.80
2022-11-29T22:56:26.425Z,26.88
2022-11-29T22:58:53.366Z,27.02
2022-11-29T23:01:25.564Z,25.50
2022-11-29T23:03:57.217Z,25.25
2022-11-29T23:06:29.477Z,27.27
2022-11-29T23:08:59.200Z,27.15
2022-11-29T23:11:28.096Z,26.30
2022-11-29T23:13:55.282Z,26.15
2022-11-29T23:16:27.993Z,25.48
2022-11-29T23:18:55.622Z,26.50
2022-11-29T23:21:24.959Z,26.35
2022-11-29T23:23:56.355Z,27.38
2022-11-29T23:26:29.168Z,26.35
2022-11-29T23:28:56.460Z,27.50
2022-11-29T23:31:24.186Z,26.50
2022-11-29T23:33:50.945Z,25.33
2022-11-29T23:36:17.728Z,26.90
2022-11-29T23:38:44.828Z,25.10
2022-11-29T23:41:12.027Z,25.73
2022-11-29T23:43:40.554Z,27.50
2022-11-29T23:46:25.484Z,27.88
2022-11-29T23:48:52.538Z,25.35
2022-11-29T23:51:19.772Z,25.23
2022-11-29T23:53:50.109Z,25.92
2022-11-29T23:56:17.989Z,26.00
2022-11-29T23:58:45.420Z,25.80
